createdAt,value
2019-05-25T00:00:09.738Z,18.37
2019-05-25T00:02:42.203Z,18.27
2019-05-25T00:05:14.592Z,18.11
2019-05-25T00:07:46.827Z,18.21
2019-05-25T00:10:19.050Z,18.22
2019-05-25T00:12:51.316Z,18.22
2019-05-25T00:15:23.598Z,18.29
2019-05-25T00:17:55.866Z,18.25
2019-05-25T00:20:28.052Z,18.27
2019-05-25T00:23:00.522Z,18.28
2019-05-25T00:25:32.895Z,18.23
2019-05-25T00:28:05.224Z,18.16
2019-05-25T00:30:37.472Z,18.19
2019-05-25T00:33:10.982Z,18.18
2019-05-25T00:35:43.274Z,18.22
2019-05-25T00:38:15.584Z,18.27
2019-05-25T00:40:47.787Z,18.19
2019-05-25T00:43:20.106Z,18.06
2019-05-25T00:45:52.597Z,18.04
2019-05-25T00:48:24.956Z,17.97
2019-05-25T00:50:57.173Z,17.91
2019-05-25T00:53:29.397Z,17.92
2019-05-25T00:56:01.667Z,18.09
2019-05-25T00:58:33.899Z,18.10
2019-05-25T01:01:06.813Z,18.11
2019-05-25T01:03:39.075Z,18.14
2019-05-25T01:06:11.273Z,18.13
2019-05-25T01:08:44.563Z,17.96
2019-05-25T01:11:16.791Z,17.89
2019-05-25T01:13:48.962Z,17.87
2019-05-25T01:16:22.246Z,17.90
2019-05-25T01:18:54.536Z,17.85
2019-05-25T01:21:26.835Z,17.83
2019-05-25T01:23:59.084Z,17.77
2019-05-25T01:26:31.355Z,17.73
2019-05-25T01:29:03.633Z,17.71
2019-05-25T01:31:35.907Z,17.69
2019-05-25T01:34:08.342Z,17.65
2019-05-25T01:36:40.550Z,17.78
2019-05-25T01:39:12.898Z,17.95
2019-05-25T01:41:45.172Z,17.94
2019-05-25T01:44:17.459Z,17.87
2019-05-25T01:46:49.533Z,17.81
2019-05-25T01:49:21.795Z,17.84
2019-05-25T01:51:54.004Z,17.83
2019-05-25T01:54:26.268Z,17.64
2019-05-25T01:56:58.515Z,17.71
2019-05-25T01:59:30.761Z,17.72
2019-05-25T02:02:02.964Z,17.67
2019-05-25T02:04:35.315Z,17.68
2019-05-25T02:07:07.587Z,17.69
2019-05-25T02:09:39.900Z,17.73
2019-05-25T02:12:12.098Z,17.73
2019-05-25T02:14:44.358Z,17.80
2019-05-25T02:17:16.569Z,17.84
2019-05-25T02:19:48.861Z,17.89
2019-05-25T02:22:21.075Z,17.87
2019-05-25T02:24:53.333Z,17.92
2019-05-25T02:27:27.174Z,17.99
2019-05-25T02:29:59.471Z,17.91
2019-05-25T02:32:32.108Z,17.94
2019-05-25T02:35:06.158Z,18.04
2019-05-25T02:37:38.430Z,18.00
2019-05-25T02:40:10.858Z,18.01
2019-05-25T02:42:43.150Z,18.04
2019-05-25T02:45:15.402Z,17.96
2019-05-25T02:47:47.490Z,18.00
2019-05-25T02:50:20.138Z,18.03
2019-05-25T02:52:52.388Z,18.12
2019-05-25T02:55:33.661Z,18.08
2019-05-25T02:57:58.572Z,18.07
2019-05-25T03:00:33.305Z,17.99
2019-05-25T03:03:05.898Z,18.01
2019-05-25T03:05:39.315Z,17.94
2019-05-25T03:08:11.525Z,18.01
2019-05-25T03:10:44.307Z,18.10
2019-05-25T03:13:16.786Z,18.02
2019-05-25T03:15:49.077Z,18.10
2019-05-25T03:18:21.308Z,18.18
2019-05-25T03:20:53.517Z,18.25
2019-05-25T03:23:25.726Z,18.35
2019-05-25T03:25:57.900Z,18.31
2019-05-25T03:28:30.174Z,18.43
2019-05-25T03:31:03.517Z,18.53
2019-05-25T03:33:35.769Z,18.44
2019-05-25T03:36:09.081Z,18.49
2019-05-25T03:38:42.177Z,18.57
2019-05-25T03:41:14.316Z,18.61
2019-05-25T03:43:46.514Z,18.74
2019-05-25T03:46:18.665Z,18.90
2019-05-25T03:48:50.884Z,19.01
2019-05-25T03:51:23.271Z,19.15
2019-05-25T03:53:55.597Z,19.17
2019-05-25T03:56:27.750Z,19.05
2019-05-25T03:58:59.853Z,19.22
2019-05-25T04:01:32.139Z,19.44
2019-05-25T04:04:04.517Z,19.65
2019-05-25T04:06:36.769Z,19.58
2019-05-25T04:09:09.987Z,19.94
2019-05-25T04:11:42.346Z,19.98
2019-05-25T04:14:14.622Z,19.75
2019-05-25T04:16:47.039Z,19.43
2019-05-25T04:19:19.366Z,19.77
2019-05-25T04:21:51.596Z,19.80
2019-05-25T04:24:23.868Z,20.03
2019-05-25T04:26:56.117Z,19.82
2019-05-25T04:29:29.905Z,20.13
2019-05-25T04:32:02.527Z,20.05
2019-05-25T04:34:34.710Z,19.89
2019-05-25T04:37:06.974Z,19.95
2019-05-25T04:39:39.790Z,19.73
2019-05-25T04:42:12.039Z,19.69
2019-05-25T04:44:44.294Z,19.72
2019-05-25T04:47:26.527Z,19.46
2019-05-25T04:49:52.226Z,19.64
2019-05-25T04:52:24.554Z,19.62
2019-05-25T04:54:56.797Z,19.80
2019-05-25T04:57:29.056Z,19.83
2019-05-25T05:00:01.347Z,19.85
2019-05-25T05:02:33.774Z,20.00
2019-05-25T05:05:08.048Z,19.67
2019-05-25T05:07:40.291Z,19.80
2019-05-25T05:10:12.550Z,20.36
2019-05-25T05:12:44.806Z,21.30
2019-05-25T05:15:16.918Z,21.32
2019-05-25T05:17:49.212Z,21.16
2019-05-25T05:20:21.613Z,20.33
2019-05-25T05:22:56.099Z,20.01
2019-05-25T05:25:28.491Z,20.65
2019-05-25T05:28:00.722Z,20.88
2019-05-25T05:30:34.353Z,21.46
2019-05-25T05:33:06.693Z,21.25
2019-05-25T05:35:40.537Z,21.28
2019-05-25T05:38:12.704Z,21.40
2019-05-25T05:40:45.888Z,20.96
2019-05-25T05:43:19.811Z,21.40
2019-05-25T05:45:53.608Z,21.28
2019-05-25T05:48:28.190Z,21.01
2019-05-25T05:51:01.414Z,21.49
2019-05-25T05:53:36.551Z,22.48
2019-05-25T05:56:10.551Z,22.38
2019-05-25T05:58:44.886Z,22.34
2019-05-25T06:01:17.277Z,22.18
2019-05-25T06:03:49.737Z,22.12
2019-05-25T06:06:22.198Z,22.48
2019-05-25T06:08:54.432Z,23.55
2019-05-25T06:11:26.577Z,25.54
2019-05-25T06:13:58.898Z,27.22
2019-05-25T06:16:31.224Z,27.12
2019-05-25T06:19:03.596Z,27.23
2019-05-25T06:21:35.792Z,27.70
2019-05-25T06:24:08.139Z,27.58
2019-05-25T06:26:40.353Z,28.31
2019-05-25T06:29:13.852Z,27.51
2019-05-25T06:31:46.059Z,26.86
2019-05-25T06:34:19.144Z,26.48
2019-05-25T06:36:52.578Z,26.42
2019-05-25T06:39:24.834Z,27.36
2019-05-25T06:41:58.414Z,25.93
2019-05-25T06:44:32.054Z,25.14
2019-05-25T06:47:06.472Z,24.58
2019-05-25T06:49:38.806Z,24.17
2019-05-25T06:52:11.081Z,24.87
2019-05-25T06:54:45.923Z,24.58
2019-05-25T06:57:18.630Z,24.99
2019-05-25T06:59:51.755Z,27.15
2019-05-25T07:02:24.110Z,24.97
2019-05-25T07:04:56.381Z,25.11
2019-05-25T07:07:28.703Z,24.37
2019-05-25T07:10:00.902Z,23.75
2019-05-25T07:12:34.196Z,23.09
2019-05-25T07:15:08.335Z,23.15
2019-05-25T07:17:40.958Z,23.47
2019-05-25T07:20:14.189Z,23.34
2019-05-25T07:22:46.410Z,23.19
2019-05-25T07:25:20.325Z,23.63
2019-05-25T07:27:59.684Z,23.44
2019-05-25T07:30:26.846Z,23.37
2019-05-25T07:32:59.466Z,23.13
2019-05-25T07:35:31.765Z,23.08
2019-05-25T07:38:04.043Z,22.86
2019-05-25T07:40:37.784Z,22.36
2019-05-25T07:43:09.951Z,21.77
2019-05-25T07:45:42.827Z,21.63
2019-05-25T07:48:15.070Z,21.21
2019-05-25T07:50:48.413Z,21.37
2019-05-25T07:53:24.422Z,21.41
2019-05-25T07:56:01.603Z,21.58
2019-05-25T07:58:34.799Z,21.78
2019-05-25T08:01:08.043Z,21.91
2019-05-25T08:03:43.730Z,22.02
2019-05-25T08:06:16.588Z,22.11
2019-05-25T08:08:51.802Z,22.35
2019-05-25T08:11:25.831Z,22.62
2019-05-25T08:13:58.489Z,23.00
2019-05-25T08:16:32.602Z,22.94
2019-05-25T08:19:05.528Z,22.88
2019-05-25T08:24:50.172Z,22.28
2019-05-25T08:27:24.544Z,22.32
2019-05-25T08:30:01.689Z,22.19
2019-05-25T08:32:34.126Z,21.94
2019-05-25T08:35:08.001Z,22.18
2019-05-25T08:37:40.290Z,22.25
2019-05-25T08:40:14.088Z,22.53
2019-05-25T08:42:46.384Z,23.13
2019-05-25T08:45:20.304Z,23.25
2019-05-25T08:47:57.025Z,23.06
2019-05-25T08:50:37.928Z,23.22
2019-05-25T08:53:02.102Z,23.59
2019-05-25T08:55:34.362Z,24.10
2019-05-25T08:58:06.709Z,23.77
2019-05-25T09:00:39.854Z,23.80
2019-05-25T09:03:12.397Z,24.07
2019-05-25T09:05:44.750Z,23.93
2019-05-25T09:08:17.117Z,23.95
2019-05-25T09:10:49.410Z,24.29
2019-05-25T09:13:21.501Z,24.42
2019-05-25T09:15:53.768Z,24.54
2019-05-25T09:18:25.778Z,24.67
2019-05-25T09:20:57.873Z,24.98
2019-05-25T09:23:30.124Z,24.58
2019-05-25T09:26:02.523Z,24.60
2019-05-25T09:28:34.867Z,24.45
2019-05-25T09:31:06.948Z,24.62
2019-05-25T09:33:38.983Z,24.82
2019-05-25T09:36:11.139Z,24.71
2019-05-25T09:38:43.526Z,24.82
2019-05-25T09:41:19.922Z,24.63
2019-05-25T09:43:52.271Z,24.48
2019-05-25T09:46:24.672Z,24.24
2019-05-25T09:48:56.748Z,24.46
2019-05-25T09:51:28.830Z,24.25
2019-05-25T09:54:02.704Z,24.59
2019-05-25T09:56:34.801Z,24.67
2019-05-25T09:59:19.315Z,24.51
2019-05-25T10:01:42.429Z,24.27
2019-05-25T10:04:14.564Z,24.04
2019-05-25T10:06:46.701Z,23.81
2019-05-25T10:09:18.959Z,23.95
2019-05-25T10:11:51.002Z,23.75
2019-05-25T10:14:23.141Z,23.77
2019-05-25T10:16:55.234Z,24.10
2019-05-25T10:19:27.353Z,24.55
2019-05-25T10:21:59.834Z,24.63
2019-05-25T10:24:33.430Z,23.61
2019-05-25T10:27:05.460Z,22.94
2019-05-25T10:29:37.894Z,21.95
2019-05-25T10:32:10.789Z,21.90
2019-05-25T10:34:42.951Z,21.80
2019-05-25T10:37:15.158Z,21.29
2019-05-25T10:39:47.279Z,20.73
2019-05-25T10:42:20.359Z,20.85
2019-05-25T10:44:52.494Z,20.02
2019-05-25T10:47:24.514Z,19.96
2019-05-25T10:49:56.625Z,19.64
2019-05-25T10:52:28.638Z,19.53
2019-05-25T10:55:00.715Z,19.40
2019-05-25T10:57:32.777Z,19.45
2019-05-25T11:00:10.511Z,19.53
2019-05-25T11:02:42.675Z,19.50
2019-05-25T11:05:15.438Z,19.64
2019-05-25T11:07:47.531Z,19.71
2019-05-25T11:10:20.178Z,20.03
2019-05-25T11:12:52.378Z,20.65
2019-05-25T11:15:24.503Z,20.97
2019-05-25T11:17:56.581Z,21.18
2019-05-25T11:20:28.610Z,21.26
2019-05-25T11:23:00.620Z,21.36
2019-05-25T11:25:32.781Z,21.09
2019-05-25T11:28:08.181Z,21.15
2019-05-25T11:30:38.972Z,21.31
2019-05-25T11:33:11.113Z,21.49
2019-05-25T11:35:44.681Z,21.57
2019-05-25T11:38:16.880Z,21.70
2019-05-25T11:40:48.942Z,21.65
2019-05-25T11:43:21.086Z,21.69
2019-05-25T11:45:53.123Z,22.17
2019-05-25T11:48:25.139Z,22.61
2019-05-25T11:50:58.098Z,22.56
2019-05-25T11:53:30.254Z,22.36
2019-05-25T11:56:02.653Z,22.29
2019-05-25T11:58:47.033Z,21.70
2019-05-25T12:01:08.783Z,20.79
2019-05-25T12:03:41.071Z,20.54
2019-05-25T12:06:13.391Z,20.19
2019-05-25T12:08:45.538Z,20.11
2019-05-25T12:11:17.494Z,20.21
2019-05-25T12:13:49.566Z,20.47
2019-05-25T12:16:21.700Z,20.48
2019-05-25T12:18:53.694Z,20.22
2019-05-25T12:21:25.716Z,20.38
2019-05-25T12:23:57.687Z,19.96
2019-05-25T12:26:30.941Z,20.17
2019-05-25T12:29:03.024Z,19.93
2019-05-25T12:31:35.330Z,19.99
2019-05-25T12:34:07.685Z,19.82
2019-05-25T12:36:39.957Z,19.85
2019-05-25T12:39:12.324Z,19.61
2019-05-25T12:41:44.662Z,19.49
2019-05-25T12:44:17.051Z,19.50
2019-05-25T12:46:49.316Z,19.74
2019-05-25T12:49:21.453Z,20.02
2019-05-25T12:51:54.676Z,20.16
2019-05-25T12:54:27.003Z,20.22
2019-05-25T12:57:02.680Z,20.42
2019-05-25T12:59:34.212Z,20.62
2019-05-25T13:02:06.436Z,20.73
2019-05-25T13:04:38.633Z,20.82
2019-05-25T13:07:10.907Z,20.90
2019-05-25T13:09:43.180Z,21.04
2019-05-25T13:12:15.485Z,20.95
2019-05-25T13:14:47.801Z,21.06
2019-05-25T13:17:19.934Z,21.30
2019-05-25T13:19:52.170Z,21.40
2019-05-25T13:22:24.865Z,21.41
2019-05-25T13:24:57.269Z,21.58
2019-05-25T13:27:29.445Z,21.70
2019-05-25T13:30:03.182Z,21.70
2019-05-25T13:32:36.439Z,21.70
2019-05-25T13:35:08.833Z,21.58
2019-05-25T13:37:40.876Z,21.51
2019-05-25T13:40:13.031Z,21.66
2019-05-25T13:42:45.126Z,21.77
2019-05-25T13:45:17.170Z,21.83
2019-05-25T13:47:49.376Z,21.92
2019-05-25T13:50:21.527Z,21.71
2019-05-25T13:52:53.716Z,21.53
2019-05-25T13:55:27.011Z,21.61
2019-05-25T13:57:59.313Z,21.58
2019-05-25T14:00:31.471Z,21.60
2019-05-25T14:03:03.704Z,21.59
2019-05-25T14:05:35.918Z,21.73
2019-05-25T14:08:08.304Z,21.69
2019-05-25T14:10:40.962Z,21.73
2019-05-25T14:13:13.351Z,21.85
2019-05-25T14:15:45.610Z,22.11
2019-05-25T14:18:17.741Z,22.17
2019-05-25T14:20:49.917Z,22.26
2019-05-25T14:23:22.150Z,22.22
2019-05-25T14:25:54.350Z,22.31
2019-05-25T14:28:26.594Z,22.36
2019-05-25T14:30:58.966Z,22.47
2019-05-25T14:33:31.276Z,22.37
2019-05-25T14:36:03.286Z,22.59
2019-05-25T14:38:35.351Z,22.57
2019-05-25T14:41:07.534Z,22.54
2019-05-25T14:43:39.612Z,22.46
2019-05-25T14:46:26.612Z,22.42
2019-05-25T14:48:45.518Z,22.36
2019-05-25T14:51:17.612Z,22.39
2019-05-25T14:53:49.805Z,22.44
2019-05-25T14:56:22.013Z,22.32
2019-05-25T14:58:54.169Z,22.42
2019-05-25T15:01:26.257Z,22.45
2019-05-25T15:03:58.793Z,22.32
2019-05-25T15:06:30.859Z,22.47
2019-05-25T15:09:04.081Z,22.39
2019-05-25T15:11:36.223Z,22.34
2019-05-25T15:14:08.373Z,22.32
2019-05-25T15:16:40.508Z,22.38
2019-05-25T15:19:12.755Z,22.38
2019-05-25T15:21:44.929Z,22.35
2019-05-25T15:24:17.519Z,22.32
2019-05-25T15:26:49.758Z,22.47
2019-05-25T15:29:22.058Z,22.37
2019-05-25T15:31:54.241Z,22.33
2019-05-25T15:34:26.516Z,22.28
2019-05-25T15:36:58.591Z,22.12
2019-05-25T15:39:30.998Z,22.08
2019-05-25T15:42:04.023Z,22.20
2019-05-25T15:44:36.277Z,22.01
2019-05-25T15:47:08.577Z,21.93
2019-05-25T15:49:41.720Z,21.62
2019-05-25T15:52:13.965Z,21.70
2019-05-25T15:54:46.213Z,21.56
2019-05-25T15:57:18.385Z,21.27
2019-05-25T15:59:50.469Z,21.42
2019-05-25T16:02:35.672Z,21.44
2019-05-25T16:04:56.382Z,21.41
2019-05-25T16:07:31.255Z,21.32
2019-05-25T16:10:02.711Z,21.25
2019-05-25T16:12:34.998Z,21.26
2019-05-25T16:15:08.784Z,21.22
2019-05-25T16:17:40.836Z,21.00
2019-05-25T16:20:15.920Z,21.19
2019-05-25T16:22:48.067Z,21.05
2019-05-25T16:25:20.214Z,20.90
2019-05-25T16:27:52.269Z,20.77
2019-05-25T16:30:24.331Z,20.73
2019-05-25T16:33:13.985Z,20.77
2019-05-25T16:35:30.776Z,20.74
2019-05-25T16:38:03.241Z,20.73
2019-05-25T16:40:35.582Z,20.65
2019-05-25T16:43:07.769Z,20.50
2019-05-25T16:45:39.821Z,20.44
2019-05-25T16:48:11.854Z,20.40
2019-05-25T16:50:44.019Z,20.30
2019-05-25T16:53:16.061Z,20.25
2019-05-25T16:55:48.367Z,20.25
2019-05-25T16:58:20.331Z,20.22
2019-05-25T17:00:52.617Z,20.24
2019-05-25T17:03:28.709Z,20.12
2019-05-25T17:05:58.530Z,20.11
2019-05-25T17:08:30.724Z,20.03
2019-05-25T17:11:02.762Z,19.96
2019-05-25T17:13:35.820Z,19.91
2019-05-25T17:16:08.072Z,19.88
2019-05-25T17:18:40.102Z,19.84
2019-05-25T17:21:12.324Z,19.79
2019-05-25T17:23:44.385Z,19.76
2019-05-25T17:26:16.630Z,19.64
2019-05-25T17:28:48.975Z,19.65
2019-05-25T17:31:21.322Z,19.61
2019-05-25T17:33:54.314Z,19.62
2019-05-25T17:36:26.675Z,19.58
2019-05-25T17:38:58.874Z,19.48
2019-05-25T17:41:31.224Z,19.45
2019-05-25T17:44:03.521Z,19.32
2019-05-25T17:46:36.689Z,19.28
2019-05-25T17:49:09.077Z,19.25
2019-05-25T17:51:41.320Z,19.28
2019-05-25T17:54:13.531Z,19.28
2019-05-25T17:56:46.914Z,19.21
2019-05-25T17:59:19.204Z,19.23
2019-05-25T18:01:51.379Z,19.28
2019-05-25T18:04:23.701Z,19.29
2019-05-25T18:06:55.980Z,19.27
2019-05-25T18:09:28.353Z,19.24
2019-05-25T18:12:01.430Z,19.22
2019-05-25T18:14:33.662Z,19.19
2019-05-25T18:17:06.053Z,19.17
2019-05-25T18:19:38.250Z,19.12
2019-05-25T18:22:10.499Z,19.00
2019-05-25T18:24:42.786Z,18.95
2019-05-25T18:27:15.055Z,19.09
2019-05-25T18:29:47.245Z,19.03
2019-05-25T18:32:19.565Z,18.97
2019-05-25T18:34:51.797Z,18.96
2019-05-25T18:37:24.151Z,18.97
2019-05-25T18:39:56.348Z,18.94
2019-05-25T18:42:30.402Z,18.93
2019-05-25T18:45:02.503Z,19.04
2019-05-25T18:47:35.051Z,18.83
2019-05-25T18:50:09.496Z,18.64
2019-05-25T18:52:41.731Z,18.62
2019-05-25T18:55:14.154Z,18.52
2019-05-25T18:57:46.586Z,18.45
2019-05-25T19:00:19.903Z,18.33
2019-05-25T19:02:52.188Z,18.37
2019-05-25T19:05:24.434Z,18.38
2019-05-25T19:07:56.793Z,18.40
2019-05-25T19:10:28.996Z,18.40
2019-05-25T19:13:01.209Z,18.49
2019-05-25T19:15:33.515Z,18.54
2019-05-25T19:18:05.854Z,18.51
2019-05-25T19:20:38.013Z,18.52
2019-05-25T19:23:10.340Z,18.58
2019-05-25T19:25:42.609Z,18.58
2019-05-25T19:28:14.861Z,18.60
2019-05-25T19:30:47.020Z,18.65
2019-05-25T19:33:19.366Z,18.71
2019-05-25T19:35:54.277Z,18.74
2019-05-25T19:38:25.678Z,18.77
2019-05-25T19:40:57.861Z,18.79
2019-05-25T19:43:31.584Z,18.87
2019-05-25T19:46:04.938Z,18.79
2019-05-25T19:48:37.078Z,18.70
2019-05-25T19:51:09.445Z,18.75
2019-05-25T19:53:41.778Z,18.77
2019-05-25T19:56:13.963Z,18.70
2019-05-25T19:58:46.213Z,18.75
2019-05-25T20:01:18.414Z,18.78
2019-05-25T20:03:50.689Z,18.73
2019-05-25T20:06:22.947Z,18.71
2019-05-25T20:08:55.211Z,18.73
2019-05-25T20:11:27.420Z,18.73
2019-05-25T20:13:59.673Z,18.76
2019-05-25T20:16:32.122Z,18.76
2019-05-25T20:19:04.407Z,18.71
2019-05-25T20:21:36.716Z,18.72
2019-05-25T20:24:08.982Z,18.67
2019-05-25T20:26:41.244Z,18.71
2019-05-25T20:29:13.899Z,18.72
2019-05-25T20:31:46.119Z,18.73
2019-05-25T20:34:18.473Z,18.72
2019-05-25T20:36:50.618Z,18.69
2019-05-25T20:39:22.753Z,18.73
2019-05-25T20:41:54.954Z,18.69
2019-05-25T20:44:27.288Z,18.70
2019-05-25T20:46:59.595Z,18.67
2019-05-25T20:49:31.835Z,18.63
2019-05-25T20:52:04.029Z,18.62
2019-05-25T20:54:36.198Z,18.62
2019-05-25T20:57:08.368Z,18.62
2019-05-25T20:59:40.483Z,18.54
2019-05-25T21:02:12.761Z,18.55
2019-05-25T21:04:45.088Z,18.50
2019-05-25T21:07:17.233Z,18.51
2019-05-25T21:09:49.579Z,18.49
2019-05-25T21:12:21.910Z,18.48
2019-05-25T21:14:54.128Z,18.45
2019-05-25T21:17:26.323Z,18.45
2019-05-25T21:19:58.509Z,18.45
2019-05-25T21:22:30.597Z,18.47
2019-05-25T21:25:05.936Z,18.53
2019-05-25T21:27:36.833Z,18.40
2019-05-25T21:30:09.921Z,18.36
2019-05-25T21:32:43.108Z,18.31
2019-05-25T21:35:15.419Z,18.33
2019-05-25T21:37:47.710Z,18.28
2019-05-25T21:40:19.825Z,18.23
2019-05-25T21:42:52.068Z,18.24
2019-05-25T21:45:24.339Z,18.28
2019-05-25T21:47:56.707Z,18.23
2019-05-25T21:50:28.849Z,18.21
2019-05-25T21:53:01.075Z,18.19
2019-05-25T21:55:33.211Z,18.15
2019-05-25T21:58:05.372Z,18.14
2019-05-25T22:00:39.338Z,18.08
2019-05-25T22:03:11.675Z,18.13
2019-05-25T22:05:44.003Z,18.04
2019-05-25T22:08:16.094Z,18.02
2019-05-25T22:10:48.463Z,18.09
2019-05-25T22:13:28.426Z,18.03
2019-05-25T22:15:54.483Z,18.12
2019-05-25T22:18:26.753Z,18.19
2019-05-25T22:20:58.991Z,18.13
2019-05-25T22:23:31.287Z,18.08
2019-05-25T22:26:03.576Z,18.04
2019-05-25T22:28:44.841Z,18.04
2019-05-25T22:31:09.686Z,18.04
2019-05-25T22:33:41.836Z,18.05
2019-05-25T22:36:13.929Z,18.07
2019-05-25T22:38:46.226Z,18.08
2019-05-25T22:41:19.958Z,18.12
2019-05-25T22:43:53.702Z,18.10
2019-05-25T22:46:26.056Z,18.09
2019-05-25T22:48:58.405Z,18.09
2019-05-25T22:51:30.699Z,18.16
2019-05-25T22:54:02.882Z,18.16
2019-05-25T22:56:35.128Z,18.15
2019-05-25T22:59:07.411Z,18.10
2019-05-25T23:01:39.751Z,18.09
2019-05-25T23:04:12.008Z,18.02
2019-05-25T23:06:57.054Z,18.02
2019-05-25T23:09:18.352Z,17.98
2019-05-25T23:11:50.593Z,17.98
2019-05-25T23:14:22.824Z,17.98
2019-05-25T23:16:55.032Z,17.99
2019-05-25T23:19:27.322Z,17.88
2019-05-25T23:21:59.603Z,17.83
2019-05-25T23:24:31.903Z,17.78
2019-05-25T23:27:04.144Z,17.70
2019-05-25T23:29:36.256Z,17.57
2019-05-25T23:32:08.379Z,17.61
2019-05-25T23:34:40.588Z,17.57
2019-05-25T23:37:15.021Z,17.52
2019-05-25T23:39:46.887Z,17.46
2019-05-25T23:42:19.176Z,17.38
2019-05-25T23:44:51.372Z,17.38
2019-05-25T23:47:23.646Z,17.33
2019-05-25T23:49:59.510Z,17.34
2019-05-25T23:52:30.204Z,17.27
2019-05-25T23:55:04.903Z,17.31
2019-05-25T23:57:36.470Z,17.31
